sensor_id;sensor_type;location;lat;lon;timestamp;pressure;altitude;pressure_sealevel;temperature;humidity
7052;BME280;3567;52.444;13.556;2023-02-23T00:03:40;101037.19;;;4.27;100.00
7052;BME280;3567;52.444;13.556;2023-02-23T00:06:07;101038.00;;;4.27;100.00
7052;BME280;3567;52.444;13.556;2023-02-23T00:08:33;101037.19;;;4.27;100.00
7052;BME280;3567;52.444;13.556;2023-02-23T00:11:02;101030.19;;;4.26;100.00
7052;BME280;3567;52.444;13.556;2023-02-23T00:13:28;101030.19;;;4.26;100.00
7052;BME280;3567;52.444;13.556;2023-02-23T00:15:54;101031.22;;;4.25;100.00
7052;BME280;3567;52.444;13.556;2023-02-23T00:18:19;101032.03;;;4.25;100.00
7052;BME280;3567;52.444;13.556;2023-02-23T00:20:54;101029.56;;;4.24;100.00
7052;BME280;3567;52.444;13.556;2023-02-23T00:23:22;101026.91;;;4.24;100.00
7052;BME280;3567;52.444;13.556;2023-02-23T00:25:47;101027.09;;;4.22;100.00
7052;BME280;3567;52.444;13.556;2023-02-23T00:28:12;101027.25;;;4.20;100.00
7052;BME280;3567;52.444;13.556;2023-02-23T00:30:38;101027.25;;;4.20;100.00
7052;BME280;3567;52.444;13.556;2023-02-23T00:33:03;101024.59;;;4.20;100.00
7052;BME280;3567;52.444;13.556;2023-02-23T00:35:29;101025.81;;;4.18;100.00
7052;BME280;3567;52.444;13.556;2023-02-23T00:37:54;101019.03;;;4.15;100.00
7052;BME280;3567;52.444;13.556;2023-02-23T00:40:19;101016.38;;;4.15;100.00
7052;BME280;3567;52.444;13.556;2023-02-23T00:42:47;101023.69;;;4.13;100.00
7052;BME280;3567;52.444;13.556;2023-02-23T00:45:14;101019.22;;;4.14;100.00
7052;BME280;3567;52.444;13.556;2023-02-23T00:47:41;101023.69;;;4.13;100.00
7052;BME280;3567;52.444;13.556;2023-02-23T00:50:11;101016.75;;;4.12;100.00
7052;BME280;3567;52.444;13.556;2023-02-23T00:52:39;101009.81;;;4.11;100.00
7052;BME280;3567;52.444;13.556;2023-02-23T00:55:12;101014.28;;;4.11;100.00
7052;BME280;3567;52.444;13.556;2023-02-23T00:57:38;101025.72;;;4.11;100.00
7052;BME280;3567;52.444;13.556;2023-02-23T01:00:06;101015.09;;;4.11;100.00
7052;BME280;3567;52.444;13.556;2023-02-23T01:02:43;101016.94;;;4.11;100.00
7052;BME280;3567;52.444;13.556;2023-02-23T01:05:09;101016.13;;;4.10;100.00
7052;BME280;3567;52.444;13.556;2023-02-23T01:07:35;101013.47;;;4.10;100.00
7052;BME280;3567;52.444;13.556;2023-02-23T01:10:00;101008.16;;;4.10;100.00
7052;BME280;3567;52.444;13.556;2023-02-23T01:12:26;101011.63;;;4.11;100.00
7052;BME280;3567;52.444;13.556;2023-02-23T01:14:51;101002.84;;;4.10;100.00
7052;BME280;3567;52.444;13.556;2023-02-23T01:17:17;101001.19;;;4.09;100.00
7052;BME280;3567;52.444;13.556;2023-02-23T01:19:42;100997.72;;;4.09;100.00
7052;BME280;3567;52.444;13.556;2023-02-23T01:22:07;100998.53;;;4.09;100.00
7052;BME280;3567;52.444;13.556;2023-02-23T01:24:33;101003.84;;;4.09;100.00
7052;BME280;3567;52.444;13.556;2023-02-23T01:26:58;101004.84;;;4.08;100.00
7052;BME280;3567;52.444;13.556;2023-02-23T01:29:23;101010.16;;;4.08;100.00
7052;BME280;3567;52.444;13.556;2023-02-23T01:31:49;101002.19;;;4.08;100.00
7052;BME280;3567;52.444;13.556;2023-02-23T01:34:18;100997.91;;;4.07;100.00
7052;BME280;3567;52.444;13.556;2023-02-23T01:36:45;101002.38;;;4.07;100.00
7052;BME280;3567;52.444;13.556;2023-02-23T01:39:14;101000.75;;;4.06;100.00
7052;BME280;3567;52.444;13.556;2023-02-23T01:41:40;101006.03;;;4.06;100.00
7052;BME280;3567;52.444;13.556;2023-02-23T01:46:40;100992.13;;;4.04;100.00
7052;BME280;3567;52.444;13.556;2023-02-23T01:49:18;100992.31;;;4.02;100.00
7052;BME280;3567;52.444;13.556;2023-02-23T01:52:08;100990.84;;;4.00;100.00
7052;BME280;3567;52.444;13.556;2023-02-23T01:54:46;100986.53;;;3.99;100.00
7052;BME280;3567;52.444;13.556;2023-02-23T01:57:16;100992.84;;;3.98;100.00
7052;BME280;3567;52.444;13.556;2023-02-23T01:59:47;100978.13;;;3.95;100.00
7052;BME280;3567;52.444;13.556;2023-02-23T02:02:15;100980.78;;;3.95;100.00
7052;BME280;3567;52.444;13.556;2023-02-23T02:04:42;100980.13;;;3.93;100.00
7052;BME280;3567;52.444;13.556;2023-02-23T02:07:11;100980.13;;;3.93;100.00
7052;BME280;3567;52.444;13.556;2023-02-23T02:09:39;100976.03;;;3.90;100.00
7052;BME280;3567;52.444;13.556;2023-02-23T02:12:21;100969.91;;;3.90;100.00
7052;BME280;3567;52.444;13.556;2023-02-23T02:14:47;100967.25;;;3.90;100.00
7052;BME280;3567;52.444;13.556;2023-02-23T02:17:52;100968.25;;;3.89;100.00
7052;BME280;3567;52.444;13.556;2023-02-23T02:20:35;100958.63;;;3.88;100.00
7052;BME280;3567;52.444;13.556;2023-02-23T02:32:10;100957.72;;;3.81;100.00
7052;BME280;3567;52.444;13.556;2023-02-23T02:42:58;100942.53;;;3.75;100.00
7052;BME280;3567;52.444;13.556;2023-02-23T02:45:30;100944.72;;;3.71;100.00
7052;BME280;3567;52.444;13.556;2023-02-23T02:48:14;100943.88;;;3.71;100.00
7052;BME280;3567;52.444;13.556;2023-02-23T02:56:24;100942.59;;;3.66;100.00
7052;BME280;3567;52.444;13.556;2023-02-23T02:58:51;100938.31;;;3.65;100.00
7052;BME280;3567;52.444;13.556;2023-02-23T03:01:18;100936.66;;;3.64;100.00
7052;BME280;3567;52.444;13.556;2023-02-23T03:04:23;100936.03;;;3.62;100.00
7052;BME280;3567;52.444;13.556;2023-02-23T03:07:19;100931.88;;;3.60;100.00
7052;BME280;3567;52.444;13.556;2023-02-23T03:10:35;100921.47;;;3.58;100.00
7052;BME280;3567;52.444;13.556;2023-02-23T03:14:16;100927.13;;;3.55;100.00
7052;BME280;3567;52.444;13.556;2023-02-23T03:16:36;100926.94;;;3.57;100.00
7052;BME280;3567;52.444;13.556;2023-02-23T03:19:24;100925.47;;;3.54;100.00
7052;BME280;3567;52.444;13.556;2023-02-23T03:31:20;100926.00;;;3.50;100.00
7052;BME280;3567;52.444;13.556;2023-02-23T03:34:16;100921.91;;;3.47;100.00
7052;BME280;3567;52.444;13.556;2023-02-23T03:37:11;100917.78;;;3.45;100.00
7052;BME280;3567;52.444;13.556;2023-02-23T03:40:05;100915.50;;;3.41;100.00
7052;BME280;3567;52.444;13.556;2023-02-23T03:42:55;100919.31;;;3.39;100.00
7052;BME280;3567;52.444;13.556;2023-02-23T03:45:42;100914.00;;;3.39;100.00
7052;BME280;3567;52.444;13.556;2023-02-23T03:48:27;100915.19;;;3.36;100.00
7052;BME280;3567;52.444;13.556;2023-02-23T03:51:13;100915.34;;;3.35;100.00
7052;BME280;3567;52.444;13.556;2023-02-23T03:54:05;100901.47;;;3.33;100.00
7052;BME280;3567;52.444;13.556;2023-02-23T03:56:55;100900.03;;;3.30;100.00
7052;BME280;3567;52.444;13.556;2023-02-23T03:59:47;100898.72;;;3.26;100.00
7052;BME280;3567;52.444;13.556;2023-02-23T04:02:35;100894.59;;;3.24;100.00
7052;BME280;3567;52.444;13.556;2023-02-23T04:05:21;100902.09;;;3.20;100.00
7052;BME280;3567;52.444;13.556;2023-02-23T04:08:08;100898.94;;;3.17;100.00
7052;BME280;3567;52.444;13.556;2023-02-23T04:11:01;100894.00;;;3.13;100.00
7052;BME280;3567;52.444;13.556;2023-02-23T04:13:53;100897.00;;;3.10;100.00
7052;BME280;3567;52.444;13.556;2023-02-23T04:16:22;100901.63;;;3.08;100.00
7052;BME280;3567;52.444;13.556;2023-02-23T04:18:48;100903.00;;;3.04;100.00
7052;BME280;3567;52.444;13.556;2023-02-23T04:21:13;100901.34;;;3.03;100.00
7052;BME280;3567;52.444;13.556;2023-02-23T04:23:40;100894.59;;;3.01;100.00
7052;BME280;3567;52.444;13.556;2023-02-23T04:26:06;100898.25;;;3.00;100.00
7052;BME280;3567;52.444;13.556;2023-02-23T04:28:32;100903.88;;;2.97;100.00
7052;BME280;3567;52.444;13.556;2023-02-23T04:30:57;100895.28;;;2.95;100.00
7052;BME280;3567;52.444;13.556;2023-02-23T04:33:23;100899.91;;;2.93;100.00
7052;BME280;3567;52.444;13.556;2023-02-23T04:35:52;100898.47;;;2.90;100.00
7052;BME280;3567;52.444;13.556;2023-02-23T04:38:18;100898.47;;;2.90;100.00
7052;BME280;3567;52.444;13.556;2023-02-23T04:40:44;100900.47;;;2.88;100.00
7052;BME280;3567;52.444;13.556;2023-02-23T04:43:13;100882.09;;;2.86;100.00
7052;BME280;3567;52.444;13.556;2023-02-23T04:45:38;100882.63;;;2.82;100.00
7052;BME280;3567;52.444;13.556;2023-02-23T04:48:04;100888.56;;;2.84;100.00
7052;BME280;3567;52.444;13.556;2023-02-23T04:50:30;100886.25;;;2.81;100.00
7052;BME280;3567;52.444;13.556;2023-02-23T04:52:55;100883.16;;;2.77;100.00
7052;BME280;3567;52.444;13.556;2023-02-23T04:55:23;100877.03;;;2.77;100.00
7052;BME280;3567;52.444;13.556;2023-02-23T04:57:49;100879.84;;;2.75;100.00
7052;BME280;3567;52.444;13.556;2023-02-23T05:00:16;100877.72;;;2.71;100.00
7052;BME280;3567;52.444;13.556;2023-02-23T05:02:41;100871.78;;;2.69;100.00
7052;BME280;3567;52.444;13.556;2023-02-23T05:05:07;100875.44;;;2.68;100.00
7052;BME280;3567;52.444;13.556;2023-02-23T05:07:33;100865.19;;;2.65;100.00
7052;BME280;3567;52.444;13.556;2023-02-23T05:09:59;100875.13;;;2.62;100.00
7052;BME280;3567;52.444;13.556;2023-02-23T05:12:24;100864.06;;;2.59;100.00
7052;BME280;3567;52.444;13.556;2023-02-23T05:14:50;100871.38;;;2.57;100.00
7052;BME280;3567;52.444;13.556;2023-02-23T05:17:15;100868.88;;;2.55;100.00
7052;BME280;3567;52.444;13.556;2023-02-23T05:19:41;100867.59;;;2.51;100.00
7052;BME280;3567;52.444;13.556;2023-02-23T05:22:06;100869.41;;;2.51;100.00
7052;BME280;3567;52.444;13.556;2023-02-23T05:24:32;100866.78;;;2.51;100.00
7052;BME280;3567;52.444;13.556;2023-02-23T05:26:57;100874.03;;;2.49;100.00
7052;BME280;3567;52.444;13.556;2023-02-23T05:29:23;100873.56;;;2.45;100.00
7052;BME280;3567;52.444;13.556;2023-02-23T05:31:49;100873.56;;;2.45;100.00
7052;BME280;3567;52.444;13.556;2023-02-23T05:34:14;100869.44;;;2.43;100.00
7052;BME280;3567;52.444;13.556;2023-02-23T05:36:41;100877.69;;;2.40;100.00
7052;BME280;3567;52.444;13.556;2023-02-23T05:39:06;100872.59;;;2.38;100.00
7052;BME280;3567;52.444;13.556;2023-02-23T05:41:32;100875.41;;;2.36;100.00
7052;BME280;3567;52.444;13.556;2023-02-23T05:43:57;100875.75;;;2.33;100.00
7052;BME280;3567;52.444;13.556;2023-02-23T05:46:24;100885.50;;;2.33;100.00
7052;BME280;3567;52.444;13.556;2023-02-23T05:48:53;100879.56;;;2.31;100.00
7052;BME280;3567;52.444;13.556;2023-02-23T05:51:19;100891.16;;;2.30;100.00
7052;BME280;3567;52.444;13.556;2023-02-23T05:53:45;100888.66;;;2.28;100.00
7052;BME280;3567;52.444;13.556;2023-02-23T05:56:14;100893.13;;;2.28;100.00
7052;BME280;3567;52.444;13.556;2023-02-23T05:58:46;100897.13;;;2.24;100.00
7052;BME280;3567;52.444;13.556;2023-02-23T06:01:12;100892.81;;;2.23;100.00
7052;BME280;3567;52.444;13.556;2023-02-23T06:03:37;100903.53;;;2.21;100.00
7052;BME280;3567;52.444;13.556;2023-02-23T06:06:03;100902.22;;;2.17;100.00
7052;BME280;3567;52.444;13.556;2023-02-23T06:08:29;100901.41;;;2.17;100.00
7052;BME280;3567;52.444;13.556;2023-02-23T06:10:54;100901.41;;;2.17;100.00
7052;BME280;3567;52.444;13.556;2023-02-23T06:13:20;100902.59;;;2.14;100.00
7052;BME280;3567;52.444;13.556;2023-02-23T06:15:46;100901.75;;;2.14;100.00
7052;BME280;3567;52.444;13.556;2023-02-23T06:18:11;100906.22;;;2.13;100.00
7052;BME280;3567;52.444;13.556;2023-02-23T06:20:42;100909.03;;;2.12;100.00
7052;BME280;3567;52.444;13.556;2023-02-23T06:23:11;100903.41;;;2.15;100.00
7052;BME280;3567;52.444;13.556;2023-02-23T06:25:37;100900.09;;;2.13;100.00
7052;BME280;3567;52.444;13.556;2023-02-23T06:28:02;100902.59;;;2.14;100.00
7052;BME280;3567;52.444;13.556;2023-02-23T06:30:28;100900.09;;;2.13;100.00
7052;BME280;3567;52.444;13.556;2023-02-23T06:32:54;100907.69;;;2.16;100.00
7052;BME280;3567;52.444;13.556;2023-02-23T06:35:19;100905.69;;;2.18;100.00
7052;BME280;3567;52.444;13.556;2023-02-23T06:37:44;100911.81;;;2.18;100.00
7052;BME280;3567;52.444;13.556;2023-02-23T06:40:10;100917.94;;;2.19;100.00
7052;BME280;3567;52.444;13.556;2023-02-23T06:42:35;100916.13;;;2.19;100.00
7052;BME280;3567;52.444;13.556;2023-02-23T06:45:02;100919.41;;;2.21;100.00
7052;BME280;3567;52.444;13.556;2023-02-23T06:47:28;100919.72;;;2.26;100.00
7052;BME280;3567;52.444;13.556;2023-02-23T06:49:53;100912.44;;;2.28;100.00
7052;BME280;3567;52.444;13.556;2023-02-23T06:52:19;100911.94;;;2.33;100.00
7052;BME280;3567;52.444;13.556;2023-02-23T06:54:44;100916.53;;;2.39;100.00
7052;BME280;3567;52.444;13.556;2023-02-23T06:57:10;100916.69;;;2.46;100.00
7052;BME280;3567;52.444;13.556;2023-02-23T06:59:36;100920.63;;;2.50;100.00
7052;BME280;3567;52.444;13.556;2023-02-23T07:02:02;100917.31;;;2.56;100.00
7052;BME280;3567;52.444;13.556;2023-02-23T07:04:31;100919.28;;;2.62;100.00
7052;BME280;3567;52.444;13.556;2023-02-23T07:06:57;100916.75;;;2.69;100.00
7052;BME280;3567;52.444;13.556;2023-02-23T07:09:23;100912.41;;;2.76;100.00
7052;BME280;3567;52.444;13.556;2023-02-23T07:11:48;100911.72;;;2.82;100.00
7052;BME280;3567;52.444;13.556;2023-02-23T07:14:13;100918.31;;;2.86;100.00
7052;BME280;3567;52.444;13.556;2023-02-23T07:16:39;100921.25;;;2.91;100.00
7052;BME280;3567;52.444;13.556;2023-02-23T07:19:05;100918.09;;;2.96;100.00
7052;BME280;3567;52.444;13.556;2023-02-23T07:21:31;100913.13;;;3.01;100.00
7052;BME280;3567;52.444;13.556;2023-02-23T07:23:57;100918.53;;;3.07;100.00
7052;BME280;3567;52.444;13.556;2023-02-23T07:26:23;100916.00;;;3.14;100.00
7052;BME280;3567;52.444;13.556;2023-02-23T07:28:48;100912.19;;;3.17;100.00
7052;BME280;3567;52.444;13.556;2023-02-23T07:31:14;100917.78;;;3.22;100.00
7052;BME280;3567;52.444;13.556;2023-02-23T07:33:40;100921.34;;;3.29;100.00
7052;BME280;3567;52.444;13.556;2023-02-23T07:36:05;100909.44;;;3.33;100.00
7052;BME280;3567;52.444;13.556;2023-02-23T07:38:31;100912.38;;;3.38;100.00
7052;BME280;3567;52.444;13.556;2023-02-23T07:40:56;100910.34;;;3.40;100.00
7052;BME280;3567;52.444;13.556;2023-02-23T07:43:22;100912.28;;;3.46;100.00
7052;BME280;3567;52.444;13.556;2023-02-23T07:45:49;100913.28;;;3.45;100.00
7052;BME280;3567;52.444;13.556;2023-02-23T07:48:16;100906.16;;;3.46;100.00
7052;BME280;3567;52.444;13.556;2023-02-23T07:50:42;100917.88;;;3.51;100.00
7052;BME280;3567;52.444;13.556;2023-02-23T07:53:08;100912.22;;;3.54;100.00
7052;BME280;3567;52.444;13.556;2023-02-23T07:55:33;100906.94;;;3.54;100.00
7052;BME280;3567;52.444;13.556;2023-02-23T07:57:58;100910.69;;;3.60;100.00
7052;BME280;3567;52.444;13.556;2023-02-23T08:00:24;100911.00;;;3.65;100.00
7052;BME280;3567;52.444;13.556;2023-02-23T08:02:51;100909.81;;;3.67;100.00
7052;BME280;3567;52.444;13.556;2023-02-23T08:05:17;100903.44;;;3.77;100.00
7052;BME280;3567;52.444;13.556;2023-02-23T08:07:43;100899.59;;;3.79;100.00
7052;BME280;3567;52.444;13.556;2023-02-23T08:10:09;100909.66;;;3.84;100.00
7052;BME280;3567;52.444;13.556;2023-02-23T08:12:34;100908.28;;;3.88;100.00
7052;BME280;3567;52.444;13.556;2023-02-23T08:15:01;100905.47;;;3.89;100.00
7052;BME280;3567;52.444;13.556;2023-02-23T08:17:27;100904.91;;;3.94;100.00
7052;BME280;3567;52.444;13.556;2023-02-23T08:19:52;100905.19;;;3.99;100.00
7052;BME280;3567;52.444;13.556;2023-02-23T08:22:18;100908.78;;;4.06;100.00
7052;BME280;3567;52.444;13.556;2023-02-23T08:24:43;100913.69;;;4.09;100.00
7052;BME280;3567;52.444;13.556;2023-02-23T08:27:08;100907.66;;;4.15;100.00
7052;BME280;3567;52.444;13.556;2023-02-23T08:29:34;100910.25;;;4.24;100.00
7052;BME280;3567;52.444;13.556;2023-02-23T08:32:03;100911.00;;;4.32;100.00
7052;BME280;3567;52.444;13.556;2023-02-23T08:34:28;100912.53;;;4.41;100.00
7052;BME280;3567;52.444;13.556;2023-02-23T08:36:54;100908.78;;;4.51;100.00
7052;BME280;3567;52.444;13.556;2023-02-23T08:39:20;100913.81;;;4.60;100.00
7052;BME280;3567;52.444;13.556;2023-02-23T08:41:45;100912.84;;;4.68;100.00
7052;BME280;3567;52.444;13.556;2023-02-23T08:44:11;100906.84;;;4.74;100.00
7052;BME280;3567;52.444;13.556;2023-02-23T08:46:36;100906.50;;;4.84;100.00
7052;BME280;3567;52.444;13.556;2023-02-23T08:49:02;100904.78;;;4.91;100.00
7052;BME280;3567;52.444;13.556;2023-02-23T08:51:28;100902.75;;;4.93;100.00
7052;BME280;3567;52.444;13.556;2023-02-23T08:53:54;100909.97;;;4.99;100.00
7052;BME280;3567;52.444;13.556;2023-02-23T08:56:21;100908.38;;;5.05;100.00
7052;BME280;3567;52.444;13.556;2023-02-23T08:58:49;100910.69;;;5.08;100.00
7052;BME280;3567;52.444;13.556;2023-02-23T09:01:18;100907.47;;;5.12;100.00
7052;BME280;3567;52.444;13.556;2023-02-23T09:03:43;100907.72;;;5.17;100.00
7052;BME280;3567;52.444;13.556;2023-02-23T09:06:12;100907.56;;;5.25;100.00
7052;BME280;3567;52.444;13.556;2023-02-23T09:08:39;100912.78;;;5.34;100.00
7052;BME280;3567;52.444;13.556;2023-02-23T09:11:04;100912.22;;;5.38;100.00
7052;BME280;3567;52.444;13.556;2023-02-23T09:13:30;100904.09;;;5.46;100.00
7052;BME280;3567;52.444;13.556;2023-02-23T09:15:56;100896.38;;;5.51;100.00
7052;BME280;3567;52.444;13.556;2023-02-23T09:18:22;100901.75;;;5.58;100.00
7052;BME280;3567;52.444;13.556;2023-02-23T09:20:48;100897.13;;;5.67;100.00
7052;BME280;3567;52.444;13.556;2023-02-23T09:23:14;100902.28;;;5.75;100.00
7052;BME280;3567;52.444;13.556;2023-02-23T09:25:40;100902.97;;;5.84;99.86
7052;BME280;3567;52.444;13.556;2023-02-23T09:28:10;100911.19;;;5.89;99.45
7052;BME280;3567;52.444;13.556;2023-02-23T09:30:37;100905.13;;;5.95;98.93
7052;BME280;3567;52.444;13.556;2023-02-23T09:33:02;100912.31;;;6.01;99.22
7052;BME280;3567;52.444;13.556;2023-02-23T09:35:28;100908.72;;;6.09;99.44
7052;BME280;3567;52.444;13.556;2023-02-23T09:37:55;100904.25;;;6.16;98.32
7052;BME280;3567;52.444;13.556;2023-02-23T09:40:26;100910.00;;;6.19;98.38
7052;BME280;3567;52.444;13.556;2023-02-23T09:45:40;100906.25;;;6.42;98.56
7052;BME280;3567;52.444;13.556;2023-02-23T09:48:20;100908.94;;;6.55;98.06
7052;BME280;3567;52.444;13.556;2023-02-23T09:50:49;100908.22;;;6.68;97.96
7052;BME280;3567;52.444;13.556;2023-02-23T09:53:36;100914.22;;;6.83;97.47
7052;BME280;3567;52.444;13.556;2023-02-23T09:56:15;100907.88;;;6.97;96.78
7052;BME280;3567;52.444;13.556;2023-02-23T09:58:42;100902.19;;;7.14;96.46
7052;BME280;3567;52.444;13.556;2023-02-23T10:01:32;100905.53;;;7.35;96.32
7052;BME280;3567;52.444;13.556;2023-02-23T10:04:14;100911.50;;;7.64;95.29
7052;BME280;3567;52.444;13.556;2023-02-23T10:06:46;100904.91;;;7.93;94.85
7052;BME280;3567;52.444;13.556;2023-02-23T10:12:29;100907.88;;;8.63;92.37
7052;BME280;3567;52.444;13.556;2023-02-23T10:15:09;100904.00;;;8.97;92.53
7052;BME280;3567;52.444;13.556;2023-02-23T10:17:57;100901.53;;;9.34;90.63
7052;BME280;3567;52.444;13.556;2023-02-23T10:23:05;100894.63;;;9.94;89.45
7052;BME280;3567;52.444;13.556;2023-02-23T10:25:36;100883.91;;;10.19;88.13
7052;BME280;3567;52.444;13.556;2023-02-23T10:28:11;100901.69;;;10.32;87.21
7052;BME280;3567;52.444;13.556;2023-02-23T10:30:39;100896.44;;;10.44;86.80
7052;BME280;3567;52.444;13.556;2023-02-23T10:33:25;100889.78;;;10.65;86.29
7052;BME280;3567;52.444;13.556;2023-02-23T10:35:58;100889.38;;;10.98;85.64
7052;BME280;3567;52.444;13.556;2023-02-23T10:38:26;100895.25;;;11.18;83.96
7052;BME280;3567;52.444;13.556;2023-02-23T10:40:55;100887.66;;;11.45;84.34
7052;BME280;3567;52.444;13.556;2023-02-23T10:43:21;100886.97;;;11.73;83.09
7052;BME280;3567;52.444;13.556;2023-02-23T10:45:49;100881.50;;;11.80;81.15
7052;BME280;3567;52.444;13.556;2023-02-23T10:48:36;100878.63;;;11.93;80.27
7052;BME280;3567;52.444;13.556;2023-02-23T10:51:16;100881.19;;;12.00;80.21
7052;BME280;3567;52.444;13.556;2023-02-23T10:53:42;100885.38;;;12.07;80.50
7052;BME280;3567;52.444;13.556;2023-02-23T10:56:13;100886.28;;;12.13;80.03
7052;BME280;3567;52.444;13.556;2023-02-23T10:58:50;100883.28;;;12.10;79.13
7052;BME280;3567;52.444;13.556;2023-02-23T11:01:31;100878.38;;;12.06;79.36
7052;BME280;3567;52.444;13.556;2023-02-23T11:04:12;100866.69;;;12.13;79.65
7052;BME280;3567;52.444;13.556;2023-02-23T11:06:40;100863.75;;;12.26;79.84
7052;BME280;3567;52.444;13.556;2023-02-23T11:09:25;100873.38;;;12.50;78.66
7052;BME280;3567;52.444;13.556;2023-02-23T11:12:00;100868.03;;;12.79;78.57
7052;BME280;3567;52.444;13.556;2023-02-23T11:14:27;100868.41;;;12.71;77.30
7052;BME280;3567;52.444;13.556;2023-02-23T11:16:58;100874.09;;;12.57;78.20
7052;BME280;3567;52.444;13.556;2023-02-23T11:19:35;100860.53;;;12.41;78.59
7052;BME280;3567;52.444;13.556;2023-02-23T11:22:03;100867.13;;;12.33;78.90
7052;BME280;3567;52.444;13.556;2023-02-23T11:24:34;100866.06;;;12.34;79.35
7052;BME280;3567;52.444;13.556;2023-02-23T11:27:05;100868.84;;;12.39;79.27
7052;BME280;3567;52.444;13.556;2023-02-23T11:29:35;100870.19;;;12.65;79.44
7052;BME280;3567;52.444;13.556;2023-02-23T11:32:18;100868.97;;;12.73;79.04
7052;BME280;3567;52.444;13.556;2023-02-23T11:34:47;100864.56;;;12.67;78.75
7052;BME280;3567;52.444;13.556;2023-02-23T11:37:31;100860.97;;;12.61;78.20
7052;BME280;3567;52.444;13.556;2023-02-23T11:39:59;100858.22;;;12.44;78.60
7052;BME280;3567;52.444;13.556;2023-02-23T11:42:30;100850.91;;;12.28;79.53
7052;BME280;3567;52.444;13.556;2023-02-23T11:47:33;100840.44;;;11.91;81.02
7052;BME280;3567;52.444;13.556;2023-02-23T11:50:03;100838.25;;;11.88;81.19
7052;BME280;3567;52.444;13.556;2023-02-23T11:52:29;100828.78;;;11.86;81.79
7052;BME280;3567;52.444;13.556;2023-02-23T11:55:03;100833.31;;;11.85;81.94
7052;BME280;3567;52.444;13.556;2023-02-23T11:57:31;100825.97;;;11.92;82.74
7052;BME280;3567;52.444;13.556;2023-02-23T12:00:01;100824.78;;;12.12;82.11
7052;BME280;3567;52.444;13.556;2023-02-23T12:02:29;100824.84;;;12.28;81.87
7052;BME280;3567;52.444;13.556;2023-02-23T12:07:36;100825.44;;;12.30;81.64
7052;BME280;3567;52.444;13.556;2023-02-23T12:12:36;100811.31;;;12.23;81.96
7052;BME280;3567;52.444;13.556;2023-02-23T12:17:52;100816.53;;;12.30;82.27
7052;BME280;3567;52.444;13.556;2023-02-23T12:20:29;100816.38;;;12.20;81.59
7052;BME280;3567;52.444;13.556;2023-02-23T12:23:01;100811.91;;;12.14;82.69
7052;BME280;3567;52.444;13.556;2023-02-23T12:25:45;100811.00;;;12.08;83.04
7052;BME280;3567;52.444;13.556;2023-02-23T12:28:26;100806.22;;;12.10;83.13
7052;BME280;3567;52.444;13.556;2023-02-23T12:31:00;100807.34;;;12.14;82.84
7052;BME280;3567;52.444;13.556;2023-02-23T12:33:37;100810.19;;;12.07;82.90
7052;BME280;3567;52.444;13.556;2023-02-23T12:38:56;100807.88;;;11.99;83.41
7052;BME280;3567;52.444;13.556;2023-02-23T12:41:44;100801.81;;;12.04;83.65
7052;BME280;3567;52.444;13.556;2023-02-23T12:44:50;100809.22;;;12.14;83.64
7052;BME280;3567;52.444;13.556;2023-02-23T12:47:25;100805.03;;;12.18;82.94
7052;BME280;3567;52.444;13.556;2023-02-23T12:49:55;100806.16;;;12.33;83.16
7052;BME280;3567;52.444;13.556;2023-02-23T12:52:31;100794.13;;;12.36;82.88
7052;BME280;3567;52.444;13.556;2023-02-23T12:54:58;100790.75;;;12.29;82.85
7052;BME280;3567;52.444;13.556;2023-02-23T12:57:40;100792.00;;;12.10;82.70
7052;BME280;3567;52.444;13.556;2023-02-23T13:00:29;100783.72;;;11.99;83.86
7052;BME280;3567;52.444;13.556;2023-02-23T13:03:23;100787.56;;;11.92;84.53
7052;BME280;3567;52.444;13.556;2023-02-23T13:05:55;100783.97;;;11.86;84.22
7052;BME280;3567;52.444;13.556;2023-02-23T13:10:55;100782.78;;;11.82;84.98
7052;BME280;3567;52.444;13.556;2023-02-23T13:17:39;100780.22;;;11.64;85.45
7052;BME280;3567;52.444;13.556;2023-02-23T13:20:05;100777.88;;;11.55;86.09
7052;BME280;3567;52.444;13.556;2023-02-23T13:22:44;100780.34;;;11.57;86.78
7052;BME280;3567;52.444;13.556;2023-02-23T13:27:59;100765.63;;;11.71;85.89
7052;BME280;3567;52.444;13.556;2023-02-23T13:30:28;100769.72;;;11.74;86.14
7052;BME280;3567;52.444;13.556;2023-02-23T13:32:57;100779.28;;;11.70;85.64
7052;BME280;3567;52.444;13.556;2023-02-23T13:35:24;100773.09;;;11.69;86.48
7052;BME280;3567;52.444;13.556;2023-02-23T13:37:59;100770.88;;;11.66;86.00
7052;BME280;3567;52.444;13.556;2023-02-23T13:40:33;100769.13;;;11.60;86.04
7052;BME280;3567;52.444;13.556;2023-02-23T13:51:27;100772.75;;;11.31;87.10
7052;BME280;3567;52.444;13.556;2023-02-23T13:56:23;100766.78;;;11.28;87.25
7052;BME280;3567;52.444;13.556;2023-02-23T13:59:22;100779.06;;;11.24;87.27
7052;BME280;3567;52.444;13.556;2023-02-23T14:01:51;100775.56;;;11.24;87.78
7052;BME280;3567;52.444;13.556;2023-02-23T14:04:26;100769.84;;;11.20;87.78
7052;BME280;3567;52.444;13.556;2023-02-23T14:07:16;100779.63;;;11.15;88.42
7052;BME280;3567;52.444;13.556;2023-02-23T14:09:54;100775.19;;;11.09;87.98
7052;BME280;3567;52.444;13.556;2023-02-23T14:12:32;100777.94;;;11.02;88.68
7052;BME280;3567;52.444;13.556;2023-02-23T14:18:00;100770.50;;;10.92;89.54
7052;BME280;3567;52.444;13.556;2023-02-23T14:26:10;100783.16;;;10.85;90.20
7052;BME280;3567;52.444;13.556;2023-02-23T14:29:31;100781.53;;;10.84;90.38
7052;BME280;3567;52.444;13.556;2023-02-23T14:31:59;100784.88;;;10.80;90.79
7052;BME280;3567;52.444;13.556;2023-02-23T14:34:48;100787.22;;;10.76;91.34
7052;BME280;3567;52.444;13.556;2023-02-23T14:42:30;100790.22;;;10.68;91.44
7052;BME280;3567;52.444;13.556;2023-02-23T14:45:02;100788.81;;;10.65;91.67
7052;BME280;3567;52.444;13.556;2023-02-23T14:47:39;100788.69;;;10.60;92.22
7052;BME280;3567;52.444;13.556;2023-02-23T14:50:09;100784.59;;;10.58;92.96
7052;BME280;3567;52.444;13.556;2023-02-23T14:52:40;100788.75;;;10.54;92.79
7052;BME280;3567;52.444;13.556;2023-02-23T14:57:39;100782.91;;;10.45;94.43